Albelo Primero — ECMU — position and weather

sailwx.info

Track history (hours):
 
Tides and Currents Weather Stations Pressure Air Temp Water Temp Dewpoint Dewpoint Depression Visibility Wind Speed Wind Dir Waves Ship Positions

Albelo Primero

Last reported at 2014-Jul-04 00:33 UTC. Time now 2014-Jul-23 03:20 UTC.
Position N 46°60' W 005°39'.
Warning: this ship's position is 19 days out of date.

Length 32 m; draft 3.5 m.

Type: Fishing. MMSI: 225360000.

Date/timePositionNaut miles runAvg speedWind from/ knotsBaromVisibWave heightAir tempDewpointWater temp
2014-Jul-04 00:33N 46°60' W 005°39'1 1.0
2014-Jul-03 23:33N 46°60' W 005°37'1 1.2
2014-Jul-03 22:24N 47°00' W 005°36'1 1.1
2014-Jul-03 21:34N 47°01' W 005°35'1 1.1
2014-Jul-03 20:33N 47°02' W 005°33'1 1.2
2014-Jul-03 19:33N 47°02' W 005°32'3 3.0
2014-Jul-03 18:33N 47°00' W 005°29'4 4.0
2014-Jul-03 17:31N 46°57' W 005°25'1 1.4
2014-Jul-03 16:33N 46°58' W 005°23'1 1.3
2014-Jul-03 15:34N 46°58' W 005°22'1 1.0
2014-Jul-03 14:34N 46°59' W 005°21'10 1.0
2014-Jul-03 04:33N 47°01' W 005°35'  
2014-Jun-24 20:33N 47°53' W 007°47'  
Track history (hours):
 
Tides and Currents Weather Stations Pressure Air Temp Water Temp Dewpoint Dewpoint Depression Visibility Wind Speed Wind Dir Waves Ship Positions

Albelo Primero

Last reported at 2014-Jul-04 00:33 UTC. Time now 2014-Jul-23 03:20 UTC.
Position N 46°60' W 005°39'.
Warning: this ship's position is 19 days out of date.

Length 32 m; draft 3.5 m.

Type: Fishing. MMSI: 225360000.

Date/timePositionNaut miles runAvg speedWind from/ knotsBaromVisibWave heightAir tempDewpointWater temp
2014-Jul-04 00:33N 46°60' W 005°39'1 1.0
2014-Jul-03 23:33N 46°60' W 005°37'1 1.2
2014-Jul-03 22:24N 47°00' W 005°36'1 1.1
2014-Jul-03 21:34N 47°01' W 005°35'1 1.1
2014-Jul-03 20:33N 47°02' W 005°33'1 1.2
2014-Jul-03 19:33N 47°02' W 005°32'3 3.0
2014-Jul-03 18:33N 47°00' W 005°29'4 4.0
2014-Jul-03 17:31N 46°57' W 005°25'1 1.4
2014-Jul-03 16:33N 46°58' W 005°23'1 1.3
2014-Jul-03 15:34N 46°58' W 005°22'1 1.0
2014-Jul-03 14:34N 46°59' W 005°21'10 1.0
2014-Jul-03 04:33N 47°01' W 005°35'  
2014-Jun-24 20:33N 47°53' W 007°47'  

Dump ship's entire track history